sensor_id;sensor_type;location;lat;lon;timestamp;temperature;humidity
49413;DHT22;35493;50.276;9.372;2023-05-23T00:02:15;18.10;86.90
49413;DHT22;35493;50.276;9.372;2023-05-23T00:04:42;18.00;87.00
49413;DHT22;35493;50.276;9.372;2023-05-23T00:07:09;18.00;86.90
49413;DHT22;35493;50.276;9.372;2023-05-23T00:09:36;18.10;86.90
49413;DHT22;35493;50.276;9.372;2023-05-23T00:12:03;18.10;86.90
49413;DHT22;35493;50.276;9.372;2023-05-23T00:14:31;18.10;86.90
49413;DHT22;35493;50.276;9.372;2023-05-23T00:17:01;18.00;86.90
49413;DHT22;35493;50.276;9.372;2023-05-23T00:19:28;18.00;86.90
49413;DHT22;35493;50.276;9.372;2023-05-23T00:21:54;17.90;87.00
49413;DHT22;35493;50.276;9.372;2023-05-23T00:24:24;18.00;86.90
49413;DHT22;35493;50.276;9.372;2023-05-23T00:26:51;17.90;86.90
49413;DHT22;35493;50.276;9.372;2023-05-23T00:29:18;17.90;86.90
49413;DHT22;35493;50.276;9.372;2023-05-23T00:31:45;17.90;87.00
49413;DHT22;35493;50.276;9.372;2023-05-23T00:34:15;17.90;86.80
49413;DHT22;35493;50.276;9.372;2023-05-23T00:36:42;18.00;86.70
49413;DHT22;35493;50.276;9.372;2023-05-23T00:39:13;18.00;86.80
49413;DHT22;35493;50.276;9.372;2023-05-23T00:41:44;18.00;86.80
49413;DHT22;35493;50.276;9.372;2023-05-23T00:44:11;17.90;86.80
49413;DHT22;35493;50.276;9.372;2023-05-23T00:46:38;17.90;86.90
49413;DHT22;35493;50.276;9.372;2023-05-23T00:49:05;17.80;87.00
49413;DHT22;35493;50.276;9.372;2023-05-23T00:51:34;17.80;87.10
49413;DHT22;35493;50.276;9.372;2023-05-23T00:54:03;17.80;87.00
49413;DHT22;35493;50.276;9.372;2023-05-23T00:56:31;17.70;86.90
49413;DHT22;35493;50.276;9.372;2023-05-23T00:58:59;17.70;86.90
49413;DHT22;35493;50.276;9.372;2023-05-23T01:01:26;17.70;86.80
49413;DHT22;35493;50.276;9.372;2023-05-23T01:03:53;17.80;86.80
49413;DHT22;35493;50.276;9.372;2023-05-23T01:06:21;17.80;86.60
49413;DHT22;35493;50.276;9.372;2023-05-23T01:08:49;17.80;86.60
49413;DHT22;35493;50.276;9.372;2023-05-23T01:14:08;17.70;86.80
49413;DHT22;35493;50.276;9.372;2023-05-23T01:16:41;17.70;87.00
49413;DHT22;35493;50.276;9.372;2023-05-23T01:19:42;17.70;87.00
49413;DHT22;35493;50.276;9.372;2023-05-23T01:22:20;17.70;87.20
49413;DHT22;35493;50.276;9.372;2023-05-23T01:24:54;17.70;87.10
49413;DHT22;35493;50.276;9.372;2023-05-23T01:27:37;17.70;87.30
49413;DHT22;35493;50.276;9.372;2023-05-23T01:30:07;17.70;87.20
49413;DHT22;35493;50.276;9.372;2023-05-23T01:32:36;17.70;87.20
49413;DHT22;35493;50.276;9.372;2023-05-23T01:35:05;17.60;87.20
49413;DHT22;35493;50.276;9.372;2023-05-23T01:37:32;17.60;87.10
49413;DHT22;35493;50.276;9.372;2023-05-23T01:39:59;17.60;87.10
49413;DHT22;35493;50.276;9.372;2023-05-23T01:42:26;17.60;87.10
49413;DHT22;35493;50.276;9.372;2023-05-23T01:44:54;17.60;86.90
49413;DHT22;35493;50.276;9.372;2023-05-23T01:47:24;17.60;87.00
49413;DHT22;35493;50.276;9.372;2023-05-23T01:49:51;17.60;86.90
49413;DHT22;35493;50.276;9.372;2023-05-23T01:52:19;17.60;87.00
49413;DHT22;35493;50.276;9.372;2023-05-23T01:54:46;17.60;87.00
49413;DHT22;35493;50.276;9.372;2023-05-23T01:57:15;17.60;86.90
49413;DHT22;35493;50.276;9.372;2023-05-23T01:59:42;17.60;86.80
49413;DHT22;35493;50.276;9.372;2023-05-23T02:02:10;17.60;86.90
49413;DHT22;35493;50.276;9.372;2023-05-23T02:04:37;17.60;86.90
49413;DHT22;35493;50.276;9.372;2023-05-23T02:07:04;17.60;86.90
49413;DHT22;35493;50.276;9.372;2023-05-23T02:09:31;17.60;87.10
49413;DHT22;35493;50.276;9.372;2023-05-23T02:11:58;17.50;87.30
49413;DHT22;35493;50.276;9.372;2023-05-23T02:14:25;17.40;87.30
49413;DHT22;35493;50.276;9.372;2023-05-23T02:16:53;17.40;87.50
49413;DHT22;35493;50.276;9.372;2023-05-23T02:19:21;17.30;87.50
49413;DHT22;35493;50.276;9.372;2023-05-23T02:21:48;17.30;87.60
49413;DHT22;35493;50.276;9.372;2023-05-23T02:24:17;17.20;87.70
49413;DHT22;35493;50.276;9.372;2023-05-23T02:26:44;17.20;87.70
49413;DHT22;35493;50.276;9.372;2023-05-23T02:29:11;17.20;87.70
49413;DHT22;35493;50.276;9.372;2023-05-23T02:31:38;17.20;87.60
49413;DHT22;35493;50.276;9.372;2023-05-23T02:34:05;17.30;87.40
49413;DHT22;35493;50.276;9.372;2023-05-23T02:36:34;17.20;87.50
49413;DHT22;35493;50.276;9.372;2023-05-23T02:39:02;17.30;87.20
49413;DHT22;35493;50.276;9.372;2023-05-23T02:41:29;17.40;87.00
49413;DHT22;35493;50.276;9.372;2023-05-23T02:43:57;17.40;86.80
49413;DHT22;35493;50.276;9.372;2023-05-23T02:46:24;17.30;86.80
49413;DHT22;35493;50.276;9.372;2023-05-23T02:48:51;17.30;86.70
49413;DHT22;35493;50.276;9.372;2023-05-23T02:51:18;17.30;86.70
49413;DHT22;35493;50.276;9.372;2023-05-23T02:53:46;17.30;86.90
49413;DHT22;35493;50.276;9.372;2023-05-23T02:56:13;17.20;87.00
49413;DHT22;35493;50.276;9.372;2023-05-23T02:58:40;17.30;86.90
49413;DHT22;35493;50.276;9.372;2023-05-23T03:01:07;17.20;86.80
49413;DHT22;35493;50.276;9.372;2023-05-23T03:03:34;17.20;86.80
49413;DHT22;35493;50.276;9.372;2023-05-23T03:06:02;17.20;86.90
49413;DHT22;35493;50.276;9.372;2023-05-23T03:08:29;17.20;86.80
49413;DHT22;35493;50.276;9.372;2023-05-23T03:10:58;17.20;86.80
49413;DHT22;35493;50.276;9.372;2023-05-23T03:13:25;17.20;86.90
49413;DHT22;35493;50.276;9.372;2023-05-23T03:15:51;17.20;86.90
49413;DHT22;35493;50.276;9.372;2023-05-23T03:18:18;17.10;86.90
49413;DHT22;35493;50.276;9.372;2023-05-23T03:20:45;17.10;87.00
49413;DHT22;35493;50.276;9.372;2023-05-23T03:23:12;17.10;87.10
49413;DHT22;35493;50.276;9.372;2023-05-23T03:25:40;17.10;87.10
49413;DHT22;35493;50.276;9.372;2023-05-23T03:28:09;17.10;87.10
49413;DHT22;35493;50.276;9.372;2023-05-23T03:30:36;17.10;87.00
49413;DHT22;35493;50.276;9.372;2023-05-23T03:33:03;17.10;86.80
49413;DHT22;35493;50.276;9.372;2023-05-23T03:35:31;17.10;86.90
49413;DHT22;35493;50.276;9.372;2023-05-23T03:37:58;17.10;86.90
49413;DHT22;35493;50.276;9.372;2023-05-23T03:40:25;17.00;87.00
49413;DHT22;35493;50.276;9.372;2023-05-23T03:43:01;17.00;87.00
49413;DHT22;35493;50.276;9.372;2023-05-23T03:45:30;17.00;86.90
49413;DHT22;35493;50.276;9.372;2023-05-23T03:47:57;17.00;87.10
49413;DHT22;35493;50.276;9.372;2023-05-23T03:50:24;16.90;87.20
49413;DHT22;35493;50.276;9.372;2023-05-23T03:52:51;17.00;87.20
49413;DHT22;35493;50.276;9.372;2023-05-23T03:55:19;16.90;87.20
49413;DHT22;35493;50.276;9.372;2023-05-23T03:57:49;16.90;87.30
49413;DHT22;35493;50.276;9.372;2023-05-23T04:00:18;16.90;87.40
49413;DHT22;35493;50.276;9.372;2023-05-23T04:02:48;16.90;87.40
49413;DHT22;35493;50.276;9.372;2023-05-23T04:05:20;16.80;87.40
49413;DHT22;35493;50.276;9.372;2023-05-23T04:07:48;16.90;87.30
49413;DHT22;35493;50.276;9.372;2023-05-23T04:10:20;16.90;87.20
49413;DHT22;35493;50.276;9.372;2023-05-23T04:12:47;16.90;87.30
49413;DHT22;35493;50.276;9.372;2023-05-23T04:15:16;17.00;87.30
49413;DHT22;35493;50.276;9.372;2023-05-23T04:17:58;16.90;87.30
49413;DHT22;35493;50.276;9.372;2023-05-23T04:20:26;17.00;87.20
49413;DHT22;35493;50.276;9.372;2023-05-23T04:22:53;17.00;87.10
49413;DHT22;35493;50.276;9.372;2023-05-23T04:25:21;17.00;86.90
49413;DHT22;35493;50.276;9.372;2023-05-23T04:28:02;17.10;86.90
49413;DHT22;35493;50.276;9.372;2023-05-23T04:30:29;17.10;87.00
49413;DHT22;35493;50.276;9.372;2023-05-23T04:32:58;17.10;86.90
49413;DHT22;35493;50.276;9.372;2023-05-23T04:35:27;17.10;86.70
49413;DHT22;35493;50.276;9.372;2023-05-23T04:37:54;17.10;86.50
49413;DHT22;35493;50.276;9.372;2023-05-23T04:40:23;17.10;86.50
49413;DHT22;35493;50.276;9.372;2023-05-23T04:43:13;17.10;86.20
49413;DHT22;35493;50.276;9.372;2023-05-23T04:45:48;17.20;86.00
49413;DHT22;35493;50.276;9.372;2023-05-23T04:48:36;17.20;86.30
49413;DHT22;35493;50.276;9.372;2023-05-23T04:51:03;17.10;86.20
49413;DHT22;35493;50.276;9.372;2023-05-23T04:53:36;17.20;85.60
49413;DHT22;35493;50.276;9.372;2023-05-23T04:56:04;17.20;85.50
49413;DHT22;35493;50.276;9.372;2023-05-23T04:58:36;17.20;85.60
49413;DHT22;35493;50.276;9.372;2023-05-23T05:01:06;17.20;85.80
49413;DHT22;35493;50.276;9.372;2023-05-23T05:03:35;17.20;85.70
49413;DHT22;35493;50.276;9.372;2023-05-23T05:06:02;17.10;85.40
49413;DHT22;35493;50.276;9.372;2023-05-23T05:08:30;17.20;85.40
49413;DHT22;35493;50.276;9.372;2023-05-23T05:10:58;17.20;85.10
49413;DHT22;35493;50.276;9.372;2023-05-23T05:13:25;17.20;85.30
49413;DHT22;35493;50.276;9.372;2023-05-23T05:15:54;17.20;85.50
49413;DHT22;35493;50.276;9.372;2023-05-23T05:18:24;17.10;85.30
49413;DHT22;35493;50.276;9.372;2023-05-23T05:20:53;17.10;85.10
49413;DHT22;35493;50.276;9.372;2023-05-23T05:23:25;17.10;85.00
49413;DHT22;35493;50.276;9.372;2023-05-23T05:25:53;17.10;84.70
49413;DHT22;35493;50.276;9.372;2023-05-23T05:28:21;17.20;84.70
49413;DHT22;35493;50.276;9.372;2023-05-23T05:30:50;17.20;84.90
49413;DHT22;35493;50.276;9.372;2023-05-23T05:33:20;17.20;84.70
49413;DHT22;35493;50.276;9.372;2023-05-23T05:35:49;17.10;84.90
49413;DHT22;35493;50.276;9.372;2023-05-23T05:38:24;17.10;85.10
49413;DHT22;35493;50.276;9.372;2023-05-23T05:40:51;17.10;85.30
49413;DHT22;35493;50.276;9.372;2023-05-23T05:43:19;17.10;85.20
49413;DHT22;35493;50.276;9.372;2023-05-23T05:45:47;17.20;85.30
49413;DHT22;35493;50.276;9.372;2023-05-23T05:48:13;17.20;85.00
49413;DHT22;35493;50.276;9.372;2023-05-23T05:50:42;17.20;85.30
49413;DHT22;35493;50.276;9.372;2023-05-23T05:53:10;17.20;85.20
49413;DHT22;35493;50.276;9.372;2023-05-23T05:55:39;17.20;84.90
49413;DHT22;35493;50.276;9.372;2023-05-23T05:58:06;17.30;84.70
49413;DHT22;35493;50.276;9.372;2023-05-23T06:00:47;17.20;84.50
49413;DHT22;35493;50.276;9.372;2023-05-23T06:03:14;17.20;84.60
49413;DHT22;35493;50.276;9.372;2023-05-23T06:05:48;17.20;84.90
49413;DHT22;35493;50.276;9.372;2023-05-23T06:08:15;17.20;84.70
49413;DHT22;35493;50.276;9.372;2023-05-23T06:10:43;17.20;84.60
49413;DHT22;35493;50.276;9.372;2023-05-23T06:13:11;17.20;84.50
49413;DHT22;35493;50.276;9.372;2023-05-23T06:15:40;17.20;84.60
49413;DHT22;35493;50.276;9.372;2023-05-23T06:18:07;17.10;84.30
49413;DHT22;35493;50.276;9.372;2023-05-23T06:20:35;17.20;83.60
49413;DHT22;35493;50.276;9.372;2023-05-23T06:23:05;17.20;82.80
49413;DHT22;35493;50.276;9.372;2023-05-23T06:25:33;17.20;82.40
49413;DHT22;35493;50.276;9.372;2023-05-23T06:28:01;17.20;82.60
49413;DHT22;35493;50.276;9.372;2023-05-23T06:30:29;17.20;82.50
49413;DHT22;35493;50.276;9.372;2023-05-23T06:32:56;17.20;82.40
49413;DHT22;35493;50.276;9.372;2023-05-23T06:35:24;17.20;82.50
49413;DHT22;35493;50.276;9.372;2023-05-23T06:37:52;17.20;82.60
49413;DHT22;35493;50.276;9.372;2023-05-23T06:40:19;17.30;82.60
49413;DHT22;35493;50.276;9.372;2023-05-23T06:42:46;17.30;82.50
49413;DHT22;35493;50.276;9.372;2023-05-23T06:45:23;17.30;82.00
49413;DHT22;35493;50.276;9.372;2023-05-23T06:47:50;17.30;82.20
49413;DHT22;35493;50.276;9.372;2023-05-23T06:50:18;17.30;82.00
49413;DHT22;35493;50.276;9.372;2023-05-23T06:52:46;17.30;81.70
49413;DHT22;35493;50.276;9.372;2023-05-23T06:55:14;17.30;81.30
49413;DHT22;35493;50.276;9.372;2023-05-23T06:57:45;17.30;81.20
49413;DHT22;35493;50.276;9.372;2023-05-23T07:00:13;17.30;81.00
49413;DHT22;35493;50.276;9.372;2023-05-23T07:02:54;17.30;81.20
49413;DHT22;35493;50.276;9.372;2023-05-23T07:05:22;17.30;81.60
49413;DHT22;35493;50.276;9.372;2023-05-23T07:07:50;17.30;81.20
49413;DHT22;35493;50.276;9.372;2023-05-23T07:10:17;17.30;81.40
49413;DHT22;35493;50.276;9.372;2023-05-23T07:12:46;17.30;81.20
49413;DHT22;35493;50.276;9.372;2023-05-23T07:15:14;17.40;80.70
49413;DHT22;35493;50.276;9.372;2023-05-23T07:17:54;17.30;80.80
49413;DHT22;35493;50.276;9.372;2023-05-23T07:20:22;17.40;80.80
49413;DHT22;35493;50.276;9.372;2023-05-23T07:22:52;17.50;81.00
49413;DHT22;35493;50.276;9.372;2023-05-23T07:25:19;17.60;81.10
49413;DHT22;35493;50.276;9.372;2023-05-23T07:27:48;17.70;80.90
49413;DHT22;35493;50.276;9.372;2023-05-23T07:30:15;17.80;80.40
49413;DHT22;35493;50.276;9.372;2023-05-23T07:32:42;17.90;79.60
49413;DHT22;35493;50.276;9.372;2023-05-23T07:35:14;18.10;79.20
49413;DHT22;35493;50.276;9.372;2023-05-23T07:37:42;18.20;79.00
49413;DHT22;35493;50.276;9.372;2023-05-23T07:40:10;18.30;78.70
49413;DHT22;35493;50.276;9.372;2023-05-23T07:42:38;18.40;77.80
49413;DHT22;35493;50.276;9.372;2023-05-23T07:45:06;18.40;77.70
49413;DHT22;35493;50.276;9.372;2023-05-23T07:47:34;18.40;77.90
49413;DHT22;35493;50.276;9.372;2023-05-23T07:50:01;18.30;78.10
49413;DHT22;35493;50.276;9.372;2023-05-23T07:52:30;18.40;77.80
49413;DHT22;35493;50.276;9.372;2023-05-23T07:54:58;18.20;77.60
49413;DHT22;35493;50.276;9.372;2023-05-23T07:57:27;18.30;77.50
49413;DHT22;35493;50.276;9.372;2023-05-23T07:59:54;18.30;78.00
49413;DHT22;35493;50.276;9.372;2023-05-23T08:02:22;18.40;77.90
49413;DHT22;35493;50.276;9.372;2023-05-23T08:04:50;18.40;76.70
49413;DHT22;35493;50.276;9.372;2023-05-23T08:07:18;18.40;76.80
49413;DHT22;35493;50.276;9.372;2023-05-23T08:09:52;18.40;76.40
49413;DHT22;35493;50.276;9.372;2023-05-23T08:12:20;18.40;76.80
49413;DHT22;35493;50.276;9.372;2023-05-23T08:14:50;18.50;76.50
49413;DHT22;35493;50.276;9.372;2023-05-23T08:17:29;18.50;75.80
49413;DHT22;35493;50.276;9.372;2023-05-23T08:19:56;18.50;75.70
49413;DHT22;35493;50.276;9.372;2023-05-23T08:22:25;18.50;75.60
49413;DHT22;35493;50.276;9.372;2023-05-23T08:24:54;18.50;75.10
49413;DHT22;35493;50.276;9.372;2023-05-23T08:27:21;18.40;75.00
49413;DHT22;35493;50.276;9.372;2023-05-23T08:29:54;18.40;75.50
49413;DHT22;35493;50.276;9.372;2023-05-23T08:32:21;18.40;75.80
49413;DHT22;35493;50.276;9.372;2023-05-23T08:34:48;18.30;76.20
49413;DHT22;35493;50.276;9.372;2023-05-23T08:37:16;18.30;76.20
49413;DHT22;35493;50.276;9.372;2023-05-23T08:39:43;18.30;76.10
49413;DHT22;35493;50.276;9.372;2023-05-23T08:42:30;18.20;76.00
49413;DHT22;35493;50.276;9.372;2023-05-23T08:44:58;18.20;76.40
49413;DHT22;35493;50.276;9.372;2023-05-23T08:47:25;18.20;76.50
49413;DHT22;35493;50.276;9.372;2023-05-23T08:49:59;18.20;76.30
49413;DHT22;35493;50.276;9.372;2023-05-23T08:52:29;18.20;76.30
49413;DHT22;35493;50.276;9.372;2023-05-23T08:54:59;18.20;76.50
49413;DHT22;35493;50.276;9.372;2023-05-23T08:57:29;18.20;76.40
49413;DHT22;35493;50.276;9.372;2023-05-23T09:00:04;18.30;76.50
49413;DHT22;35493;50.276;9.372;2023-05-23T09:02:39;18.40;76.30
49413;DHT22;35493;50.276;9.372;2023-05-23T09:05:19;18.50;75.80
49413;DHT22;35493;50.276;9.372;2023-05-23T09:07:48;18.60;75.50
49413;DHT22;35493;50.276;9.372;2023-05-23T09:10:16;18.60;75.20
49413;DHT22;35493;50.276;9.372;2023-05-23T09:12:47;18.70;75.00
49413;DHT22;35493;50.276;9.372;2023-05-23T09:15:14;18.70;75.00
49413;DHT22;35493;50.276;9.372;2023-05-23T09:17:42;18.80;75.10
49413;DHT22;35493;50.276;9.372;2023-05-23T09:20:11;18.90;74.80
49413;DHT22;35493;50.276;9.372;2023-05-23T09:22:45;18.90;74.60
49413;DHT22;35493;50.276;9.372;2023-05-23T09:25:14;18.90;74.10
49413;DHT22;35493;50.276;9.372;2023-05-23T09:27:44;18.80;74.20
49413;DHT22;35493;50.276;9.372;2023-05-23T09:30:13;18.80;74.10
49413;DHT22;35493;50.276;9.372;2023-05-23T09:32:40;18.90;74.30
49413;DHT22;35493;50.276;9.372;2023-05-23T09:35:09;18.90;74.20
49413;DHT22;35493;50.276;9.372;2023-05-23T09:37:39;18.90;74.20
49413;DHT22;35493;50.276;9.372;2023-05-23T09:40:10;18.90;74.10
49413;DHT22;35493;50.276;9.372;2023-05-23T09:42:41;18.90;74.00
49413;DHT22;35493;50.276;9.372;2023-05-23T09:45:09;18.90;74.60
49413;DHT22;35493;50.276;9.372;2023-05-23T09:47:38;18.90;74.20
49413;DHT22;35493;50.276;9.372;2023-05-23T09:50:06;18.90;74.00
49413;DHT22;35493;50.276;9.372;2023-05-23T09:52:35;18.90;74.10
49413;DHT22;35493;50.276;9.372;2023-05-23T09:55:03;18.90;74.40
49413;DHT22;35493;50.276;9.372;2023-05-23T09:57:34;18.90;74.30
49413;DHT22;35493;50.276;9.372;2023-05-23T10:00:03;18.80;74.40
49413;DHT22;35493;50.276;9.372;2023-05-23T10:02:57;18.70;74.50
49413;DHT22;35493;50.276;9.372;2023-05-23T10:05:32;18.70;74.80
49413;DHT22;35493;50.276;9.372;2023-05-23T10:08:04;18.60;74.90
49413;DHT22;35493;50.276;9.372;2023-05-23T10:10:34;18.70;75.10
49413;DHT22;35493;50.276;9.372;2023-05-23T10:13:04;18.70;75.00
49413;DHT22;35493;50.276;9.372;2023-05-23T10:15:37;18.70;74.80
49413;DHT22;35493;50.276;9.372;2023-05-23T10:18:15;18.70;74.70
49413;DHT22;35493;50.276;9.372;2023-05-23T10:20:48;18.60;75.10
49413;DHT22;35493;50.276;9.372;2023-05-23T10:23:15;18.50;75.20
49413;DHT22;35493;50.276;9.372;2023-05-23T10:25:43;18.40;75.70
49413;DHT22;35493;50.276;9.372;2023-05-23T10:28:11;18.30;76.10
49413;DHT22;35493;50.276;9.372;2023-05-23T10:30:39;18.40;76.00
49413;DHT22;35493;50.276;9.372;2023-05-23T10:33:06;18.40;75.50
49413;DHT22;35493;50.276;9.372;2023-05-23T10:35:44;18.30;75.60
49413;DHT22;35493;50.276;9.372;2023-05-23T10:38:23;18.30;75.80
49413;DHT22;35493;50.276;9.372;2023-05-23T10:40:57;18.50;75.60
49413;DHT22;35493;50.276;9.372;2023-05-23T10:43:30;18.50;75.60
49413;DHT22;35493;50.276;9.372;2023-05-23T10:46:00;18.60;75.50
49413;DHT22;35493;50.276;9.372;2023-05-23T10:48:32;18.70;75.20
49413;DHT22;35493;50.276;9.372;2023-05-23T10:51:06;18.80;75.00
49413;DHT22;35493;50.276;9.372;2023-05-23T10:53:35;19.00;74.60
49413;DHT22;35493;50.276;9.372;2023-05-23T10:56:04;19.00;74.10
49413;DHT22;35493;50.276;9.372;2023-05-23T10:58:33;19.10;73.70
49413;DHT22;35493;50.276;9.372;2023-05-23T11:01:03;19.10;73.30
49413;DHT22;35493;50.276;9.372;2023-05-23T11:03:33;19.10;73.30
49413;DHT22;35493;50.276;9.372;2023-05-23T11:06:00;19.10;73.00
49413;DHT22;35493;50.276;9.372;2023-05-23T11:08:36;19.10;72.90
49413;DHT22;35493;50.276;9.372;2023-05-23T11:11:04;19.10;73.20
49413;DHT22;35493;50.276;9.372;2023-05-23T11:13:53;19.00;71.40
49413;DHT22;35493;50.276;9.372;2023-05-23T11:16:25;19.00;71.00
49413;DHT22;35493;50.276;9.372;2023-05-23T11:18:53;19.00;71.40
49413;DHT22;35493;50.276;9.372;2023-05-23T11:21:23;19.00;71.30
49413;DHT22;35493;50.276;9.372;2023-05-23T11:23:53;19.00;71.20
49413;DHT22;35493;50.276;9.372;2023-05-23T11:26:31;18.90;71.10
49413;DHT22;35493;50.276;9.372;2023-05-23T11:28:58;18.80;71.90
49413;DHT22;35493;50.276;9.372;2023-05-23T11:31:27;18.80;71.00
49413;DHT22;35493;50.276;9.372;2023-05-23T11:33:54;18.80;71.90
49413;DHT22;35493;50.276;9.372;2023-05-23T11:36:21;18.70;71.40
49413;DHT22;35493;50.276;9.372;2023-05-23T11:38:49;18.70;71.60
49413;DHT22;35493;50.276;9.372;2023-05-23T11:41:18;18.60;71.30
49413;DHT22;35493;50.276;9.372;2023-05-23T11:43:49;18.60;71.30
49413;DHT22;35493;50.276;9.372;2023-05-23T11:46:17;18.60;71.90
49413;DHT22;35493;50.276;9.372;2023-05-23T11:48:44;18.70;71.80
49413;DHT22;35493;50.276;9.372;2023-05-23T11:51:12;18.60;71.50
49413;DHT22;35493;50.276;9.372;2023-05-23T11:53:39;18.60;71.90
49413;DHT22;35493;50.276;9.372;2023-05-23T11:58:56;18.70;71.80
49413;DHT22;35493;50.276;9.372;2023-05-23T12:01:28;18.60;71.60
49413;DHT22;35493;50.276;9.372;2023-05-23T12:03:55;18.70;71.90
49413;DHT22;35493;50.276;9.372;2023-05-23T12:06:23;18.70;71.40
49413;DHT22;35493;50.276;9.372;2023-05-23T12:08:51;18.60;71.80
49413;DHT22;35493;50.276;9.372;2023-05-23T12:11:17;18.70;71.70
49413;DHT22;35493;50.276;9.372;2023-05-23T12:13:56;18.70;71.80
49413;DHT22;35493;50.276;9.372;2023-05-23T12:16:37;18.70;72.00
49413;DHT22;35493;50.276;9.372;2023-05-23T12:19:04;18.80;71.60
49413;DHT22;35493;50.276;9.372;2023-05-23T12:21:43;18.80;71.00
49413;DHT22;35493;50.276;9.372;2023-05-23T12:24:16;18.80;71.50
49413;DHT22;35493;50.276;9.372;2023-05-23T12:26:50;18.80;70.40
49413;DHT22;35493;50.276;9.372;2023-05-23T12:29:19;18.80;69.60
49413;DHT22;35493;50.276;9.372;2023-05-23T12:31:50;18.70;69.50
49413;DHT22;35493;50.276;9.372;2023-05-23T12:34:19;18.80;69.90
49413;DHT22;35493;50.276;9.372;2023-05-23T12:36:47;18.80;70.10
49413;DHT22;35493;50.276;9.372;2023-05-23T12:39:15;18.90;70.30
49413;DHT22;35493;50.276;9.372;2023-05-23T12:41:43;19.00;69.80
49413;DHT22;35493;50.276;9.372;2023-05-23T12:44:10;19.10;69.70
49413;DHT22;35493;50.276;9.372;2023-05-23T12:46:42;19.10;69.60
49413;DHT22;35493;50.276;9.372;2023-05-23T12:49:10;19.10;69.50
49413;DHT22;35493;50.276;9.372;2023-05-23T12:51:37;19.10;69.70
49413;DHT22;35493;50.276;9.372;2023-05-23T12:54:04;19.10;69.60
49413;DHT22;35493;50.276;9.372;2023-05-23T12:56:31;19.10;69.80
49413;DHT22;35493;50.276;9.372;2023-05-23T12:58:58;19.00;69.40
49413;DHT22;35493;50.276;9.372;2023-05-23T13:01:26;19.10;70.00
49413;DHT22;35493;50.276;9.372;2023-05-23T13:03:55;19.00;70.50
49413;DHT22;35493;50.276;9.372;2023-05-23T13:06:26;19.00;70.30
49413;DHT22;35493;50.276;9.372;2023-05-23T13:08:54;18.90;70.60
49413;DHT22;35493;50.276;9.372;2023-05-23T13:11:21;18.90;70.60
49413;DHT22;35493;50.276;9.372;2023-05-23T13:13:48;18.80;70.70
49413;DHT22;35493;50.276;9.372;2023-05-23T13:16:18;18.70;70.50
49413;DHT22;35493;50.276;9.372;2023-05-23T13:18:45;18.70;70.70
49413;DHT22;35493;50.276;9.372;2023-05-23T13:21:19;18.70;70.50
49413;DHT22;35493;50.276;9.372;2023-05-23T13:23:46;18.70;70.70
49413;DHT22;35493;50.276;9.372;2023-05-23T13:26:13;18.70;70.70
49413;DHT22;35493;50.276;9.372;2023-05-23T13:28:42;18.70;70.60
49413;DHT22;35493;50.276;9.372;2023-05-23T13:31:09;18.60;70.50
49413;DHT22;35493;50.276;9.372;2023-05-23T13:33:36;18.70;70.80
49413;DHT22;35493;50.276;9.372;2023-05-23T13:36:03;18.70;70.70
49413;DHT22;35493;50.276;9.372;2023-05-23T13:38:33;18.60;70.50
49413;DHT22;35493;50.276;9.372;2023-05-23T13:44:22;18.60;70.40
49413;DHT22;35493;50.276;9.372;2023-05-23T13:47:17;18.60;70.50
49413;DHT22;35493;50.276;9.372;2023-05-23T13:49:44;18.70;70.40
49413;DHT22;35493;50.276;9.372;2023-05-23T13:52:11;18.80;70.40
49413;DHT22;35493;50.276;9.372;2023-05-23T13:54:39;18.80;70.60
49413;DHT22;35493;50.276;9.372;2023-05-23T13:57:06;18.80;70.40
49413;DHT22;35493;50.276;9.372;2023-05-23T13:59:33;18.90;69.90
49413;DHT22;35493;50.276;9.372;2023-05-23T14:02:01;18.90;69.50
49413;DHT22;35493;50.276;9.372;2023-05-23T14:04:28;19.00;69.70
49413;DHT22;35493;50.276;9.372;2023-05-23T14:06:56;18.90;69.80
49413;DHT22;35493;50.276;9.372;2023-05-23T14:09:23;18.90;69.90
49413;DHT22;35493;50.276;9.372;2023-05-23T14:11:51;18.90;70.20
49413;DHT22;35493;50.276;9.372;2023-05-23T14:14:19;18.80;70.10
49413;DHT22;35493;50.276;9.372;2023-05-23T14:16:49;18.80;70.20
49413;DHT22;35493;50.276;9.372;2023-05-23T14:19:16;18.80;70.20
49413;DHT22;35493;50.276;9.372;2023-05-23T14:21:45;18.70;70.20
49413;DHT22;35493;50.276;9.372;2023-05-23T14:24:12;18.70;69.90
49413;DHT22;35493;50.276;9.372;2023-05-23T14:26:40;18.70;69.90
49413;DHT22;35493;50.276;9.372;2023-05-23T14:29:13;18.50;69.40
49413;DHT22;35493;50.276;9.372;2023-05-23T14:31:56;18.40;69.50
49413;DHT22;35493;50.276;9.372;2023-05-23T14:34:25;18.50;70.00
49413;DHT22;35493;50.276;9.372;2023-05-23T14:36:52;18.50;69.90
49413;DHT22;35493;50.276;9.372;2023-05-23T14:39:19;18.50;69.60
49413;DHT22;35493;50.276;9.372;2023-05-23T14:41:46;18.40;70.00
49413;DHT22;35493;50.276;9.372;2023-05-23T14:44:14;18.30;69.00
49413;DHT22;35493;50.276;9.372;2023-05-23T14:46:41;18.30;69.40
49413;DHT22;35493;50.276;9.372;2023-05-23T14:49:13;18.30;69.40
49413;DHT22;35493;50.276;9.372;2023-05-23T14:51:40;18.30;69.20
49413;DHT22;35493;50.276;9.372;2023-05-23T14:54:07;18.20;69.30
49413;DHT22;35493;50.276;9.372;2023-05-23T14:56:34;18.40;69.20
49413;DHT22;35493;50.276;9.372;2023-05-23T14:59:02;18.40;68.50
49413;DHT22;35493;50.276;9.372;2023-05-23T15:01:33;18.40;68.30
49413;DHT22;35493;50.276;9.372;2023-05-23T15:04:00;18.40;68.30
49413;DHT22;35493;50.276;9.372;2023-05-23T15:06:27;18.40;68.80
49413;DHT22;35493;50.276;9.372;2023-05-23T15:08:54;18.50;68.60
49413;DHT22;35493;50.276;9.372;2023-05-23T15:11:21;18.50;67.70
49413;DHT22;35493;50.276;9.372;2023-05-23T15:13:49;18.50;67.50
49413;DHT22;35493;50.276;9.372;2023-05-23T15:16:16;18.60;67.70
49413;DHT22;35493;50.276;9.372;2023-05-23T15:18:44;18.50;67.80
49413;DHT22;35493;50.276;9.372;2023-05-23T15:21:11;18.60;67.50
49413;DHT22;35493;50.276;9.372;2023-05-23T15:23:38;18.60;67.70
49413;DHT22;35493;50.276;9.372;2023-05-23T15:26:06;18.60;67.50
49413;DHT22;35493;50.276;9.372;2023-05-23T15:28:32;18.60;67.10
49413;DHT22;35493;50.276;9.372;2023-05-23T15:30:59;18.50;67.70
49413;DHT22;35493;50.276;9.372;2023-05-23T15:33:29;18.40;67.60
49413;DHT22;35493;50.276;9.372;2023-05-23T15:35:58;18.50;68.00
49413;DHT22;35493;50.276;9.372;2023-05-23T15:38:25;18.60;68.40
49413;DHT22;35493;50.276;9.372;2023-05-23T15:40:52;18.60;68.20
49413;DHT22;35493;50.276;9.372;2023-05-23T15:43:21;18.60;68.00
49413;DHT22;35493;50.276;9.372;2023-05-23T15:45:50;18.70;67.60
49413;DHT22;35493;50.276;9.372;2023-05-23T15:48:19;18.70;66.80
49413;DHT22;35493;50.276;9.372;2023-05-23T15:50:46;18.70;66.70
49413;DHT22;35493;50.276;9.372;2023-05-23T15:53:18;18.80;66.00